Time;durP1;ratioP1;P1;durP2;ratioP2;P2;SDS_P1;SDS_P2;PMS_P1;PMS_P2;Temp;Humidity;BMP_temperature;BMP_pressure;BME280_temperature;BME280_humidity;BME280_pressure;Samples;Min_cycle;Max_cycle;Signal;HPM_P1;HPM_P2
2023/11/19 00:00:42;;;;;;;;;;;;;;;25.44;41.53;101127.41;4199003;28;19966;-61
2023/11/19 00:02:54;;;;;;;;;;;;;;;25.42;42.02;101124.00;4199103;28;19920;-60
2023/11/19 00:04:55;;;;;;;;;;;;;;;25.40;41.80;101120.63;4198997;28;19942;-60
2023/11/19 00:07:02;;;;;;;;;;;;;;;25.37;41.94;101124.41;4198804;28;19924;-60
2023/11/19 00:09:04;;;;;;;;;;;;;;;25.37;41.92;101119.00;4198855;28;20367;-60
2023/11/19 00:11:05;;;;;;;;;;;;;;;25.37;41.69;101124.41;4198907;28;19921;-60
2023/11/19 00:13:07;;;;;;;;;;;;;;;25.38;41.64;101118.06;4198792;28;19969;-61
2023/11/19 00:15:11;;;;;;;;;;;;;;;25.42;42.00;101118.63;4199009;28;20387;-61
2023/11/19 00:17:13;;;;;;;;;;;;;;;25.43;41.92;101123.03;4198938;28;19954;-61
2023/11/19 00:19:15;;;;;;;;;;;;;;;25.44;41.73;101122.88;4197510;28;19931;-61
2023/11/19 00:21:16;;;;;;;;;;;;;;;25.46;41.75;101125.44;4198582;28;19982;-61
2023/11/19 00:23:18;;;;;;;;;;;;;;;25.46;41.65;101114.66;4198254;28;19960;-61
2023/11/19 00:25:21;;;;;;;;;;;;;;;25.46;41.57;101109.28;4198760;28;20015;-60
2023/11/19 00:27:23;;;;;;;;;;;;;;;25.45;41.53;101103.03;4198822;28;19926;-60
2023/11/19 00:29:25;;;;;;;;;;;;;;;25.43;41.60;101115.81;4198679;28;19927;-61
2023/11/19 00:31:27;;;;;;;;;;;;;;;25.42;41.60;101110.53;4198641;28;19920;-61
2023/11/19 00:33:29;;;;;;;;;;;;;;;25.40;42.00;101102.63;4198706;28;20292;-60
2023/11/19 00:35:31;;;;;;;;;;;;;;;25.41;41.79;101101.63;4198637;28;19920;-61
2023/11/19 00:37:33;;;;;;;;;;;;;;;25.43;41.85;101102.34;4198329;28;19920;-61
2023/11/19 00:39:35;;;;;;;;;;;;;;;25.44;41.62;101103.19;4198499;28;20335;-61
2023/11/19 00:41:36;;;;;;;;;;;;;;;25.45;41.86;101103.03;4198607;28;19920;-59
2023/11/19 00:43:38;;;;;;;;;;;;;;;25.45;41.86;101108.41;4198611;28;19920;-59
2023/11/19 00:45:39;;;;;;;;;;;;;;;25.48;41.60;101108.16;4198441;28;19924;-60
2023/11/19 00:47:41;;;;;;;;;;;;;;;25.48;41.63;101102.75;4198286;28;19920;-60
2023/11/19 00:49:43;;;;;;;;;;;;;;;25.50;41.86;101098.06;4198426;28;19943;-60
2023/11/19 00:51:45;;;;;;;;;;;;;;;25.48;41.48;101094.69;4198144;28;19920;-60
2023/11/19 00:53:46;;;;;;;;;;;;;;;25.46;41.94;101095.81;4198332;28;20310;-60
2023/11/19 00:55:48;;;;;;;;;;;;;;;25.45;41.59;101102.19;4198280;28;20389;-60
2023/11/19 00:57:49;;;;;;;;;;;;;;;25.44;42.02;101105.88;4198166;28;19931;-59
2023/11/19 00:59:51;;;;;;;;;;;;;;;25.45;41.67;101094.13;4198306;28;19928;-60
2023/11/19 01:01:53;;;;;;;;;;;;;;;25.48;41.65;101101.88;4198424;28;19978;-59
2023/11/19 01:03:54;;;;;;;;;;;;;;;25.50;41.88;101094.53;4198296;28;19921;-60
2023/11/19 01:05:56;;;;;;;;;;;;;;;25.50;41.43;101098.06;4198015;28;20318;-58
2023/11/19 01:07:58;;;;;;;;;;;;;;;25.52;41.91;101095.25;4198075;28;19924;-59
2023/11/19 01:10:00;;;;;;;;;;;;;;;25.54;41.61;101090.53;4197886;28;19924;-60
2023/11/19 01:12:01;;;;;;;;;;;;;;;25.55;41.80;101104.88;4198332;28;19920;-60
2023/11/19 01:14:03;;;;;;;;;;;;;;;25.54;41.83;101109.41;4198103;28;19999;-60
2023/11/19 01:16:06;;;;;;;;;;;;;;;25.54;41.85;101105.88;4197918;28;19927;-60
2023/11/19 01:18:09;;;;;;;;;;;;;;;25.51;41.80;101096.22;4198108;28;20371;-60
2023/11/19 01:20:12;;;;;;;;;;;;;;;25.49;41.91;101093.69;4197795;28;19959;-60
2023/11/19 01:22:14;;;;;;;;;;;;;;;25.48;41.94;101094.69;4197397;28;19920;-60
2023/11/19 01:24:21;;;;;;;;;;;;;;;25.50;41.99;101102.59;4197832;28;19931;-60
2023/11/19 01:26:22;;;;;;;;;;;;;;;25.54;41.68;101111.25;4198029;28;19920;-60
2023/11/19 01:28:24;;;;;;;;;;;;;;;25.54;41.92;101108.56;4197711;28;19921;-61
2023/11/19 01:30:26;;;;;;;;;;;;;;;25.57;41.83;101097.50;4197861;28;20255;-60
2023/11/19 01:32:27;;;;;;;;;;;;;;;25.57;41.68;101092.97;4197839;28;19959;-60
2023/11/19 01:34:34;;;;;;;;;;;;;;;25.60;41.51;101107.97;4196413;28;19967;-59
2023/11/19 01:36:36;;;;;;;;;;;;;;;25.60;41.59;101097.22;4197506;28;19951;-60
2023/11/19 01:38:37;;;;;;;;;;;;;;;25.58;41.90;101108.13;4196377;28;20007;-60
2023/11/19 01:40:39;;;;;;;;;;;;;;;25.59;41.52;101107.16;4197569;28;19924;-60
2023/11/19 01:42:40;;;;;;;;;;;;;;;25.57;41.75;101108.28;4197658;28;19932;-59
2023/11/19 01:44:59;;;;;;;;;;;;;;;25.55;41.83;101112.97;4197566;28;19932;-61
2023/11/19 01:47:02;;;;;;;;;;;;;;;25.56;41.84;101114.66;4197380;28;19930;-60
2023/11/19 01:49:08;;;;;;;;;;;;;;;25.58;41.77;101116.22;4197324;28;20292;-60
2023/11/19 01:51:11;;;;;;;;;;;;;;;25.60;41.79;101118.75;4196714;28;19928;-60
2023/11/19 01:53:12;;;;;;;;;;;;;;;25.62;41.74;101116.78;4197222;28;19946;-60
2023/11/19 01:55:14;;;;;;;;;;;;;;;25.62;41.71;101120.31;4197159;28;19921;-60
2023/11/19 01:57:15;;;;;;;;;;;;;;;25.64;41.45;101120.19;4197479;28;20372;-61
2023/11/19 01:59:17;;;;;;;;;;;;;;;25.65;41.69;101113.78;4197217;28;19920;-59
2023/11/19 02:01:19;;;;;;;;;;;;;;;25.65;41.79;101108.41;4196080;28;20335;-59
2023/11/19 02:03:21;;;;;;;;;;;;;;;25.66;41.56;101102.88;4197017;28;20444;-60
2023/11/19 02:05:23;;;;;;;;;;;;;;;25.64;41.33;101096.78;4196559;28;19920;-60
2023/11/19 02:07:25;;;;;;;;;;;;;;;25.64;41.68;101095.94;4197165;28;19927;-60
2023/11/19 02:09:27;;;;;;;;;;;;;;;25.63;41.56;101094.25;4197071;28;20415;-60
2023/11/19 02:11:29;;;;;;;;;;;;;;;25.61;41.53;101093.53;4197257;28;20403;-60
2023/11/19 02:13:30;;;;;;;;;;;;;;;25.62;41.51;101079.06;4197124;28;19928;-60
2023/11/19 02:15:33;;;;;;;;;;;;;;;25.66;41.69;101091.25;4197079;28;20310;-60
2023/11/19 02:17:34;;;;;;;;;;;;;;;25.66;41.45;101094.81;4197264;28;19920;-59
2023/11/19 02:19:37;;;;;;;;;;;;;;;25.69;41.28;101093.66;4195539;28;19928;-60
2023/11/19 02:21:38;;;;;;;;;;;;;;;25.71;41.65;101093.50;4196921;28;19926;-60
2023/11/19 02:23:40;;;;;;;;;;;;;;;25.72;41.61;101090.66;4197155;28;19958;-60
2023/11/19 02:25:43;;;;;;;;;;;;;;;25.71;41.70;101086.25;4195860;28;20407;-60
2023/11/19 02:27:47;;;;;;;;;;;;;;;25.70;41.48;101084.59;4196982;28;19920;-59
2023/11/19 02:29:49;;;;;;;;;;;;;;;25.67;41.60;101085.69;4196888;28;20431;-60
2023/11/19 02:31:51;;;;;;;;;;;;;;;25.66;41.67;101084.03;4196973;28;20093;-60
2023/11/19 02:33:52;;;;;;;;;;;;;;;25.65;41.49;101090.41;4196601;28;19924;-61
2023/11/19 02:35:54;;;;;;;;;;;;;;;25.65;41.39;101082.31;4196842;28;19920;-60
2023/11/19 02:37:55;;;;;;;;;;;;;;;25.67;41.81;101083.00;4196796;28;20007;-60
2023/11/19 02:40:02;;;;;;;;;;;;;;;25.70;41.74;101079.19;4196849;28;19924;-60
2023/11/19 02:42:04;;;;;;;;;;;;;;;25.73;41.71;101089.66;4195731;28;19927;-60
2023/11/19 02:44:06;;;;;;;;;;;;;;;25.75;41.69;101085.00;4196964;28;19924;-60
2023/11/19 02:46:08;;;;;;;;;;;;;;;25.77;41.47;101083.00;4196639;28;19924;-60
2023/11/19 02:48:14;;;;;;;;;;;;;;;25.78;41.33;101075.78;4196560;28;19943;-60
2023/11/19 02:50:17;;;;;;;;;;;;;;;25.77;41.33;101080.31;4196610;28;20003;-61
2023/11/19 02:52:18;;;;;;;;;;;;;;;25.77;41.59;101084.84;4196884;28;19995;-60
2023/11/19 02:54:26;;;;;;;;;;;;;;;25.74;41.60;101077.91;4196851;28;20379;-60
2023/11/19 02:56:29;;;;;;;;;;;;;;;25.73;41.38;101081.59;4196649;28;19920;-60
2023/11/19 02:58:31;;;;;;;;;;;;;;;25.72;41.34;101077.19;4196653;28;19920;-60
2023/11/19 03:00:36;;;;;;;;;;;;;;;25.71;41.56;101072.78;4196960;28;19947;-60
2023/11/19 03:02:44;;;;;;;;;;;;;;;25.73;41.45;101078.06;4196173;28;19927;-59
2023/11/19 03:04:46;;;;;;;;;;;;;;;25.76;41.34;101075.06;4198703;28;20347;-60
2023/11/19 03:06:47;;;;;;;;;;;;;;;25.77;41.16;101079.47;4199850;28;19973;-61
2023/11/19 03:08:49;;;;;;;;;;;;;;;25.79;41.32;101074.78;4199869;28;19967;-60
2023/11/19 03:10:50;;;;;;;;;;;;;;;25.81;41.39;101078.19;4199831;28;19920;-59
2023/11/19 03:12:52;;;;;;;;;;;;;;;25.82;41.43;101075.34;4199702;28;20007;-60
2023/11/19 03:14:55;;;;;;;;;;;;;;;25.81;41.39;101076.31;4199806;28;19920;-60
2023/11/19 03:16:56;;;;;;;;;;;;;;;25.81;41.39;101081.72;4199747;28;20018;-60
2023/11/19 03:19:00;;;;;;;;;;;;;;;25.73;41.08;101080.75;4199803;28;19920;-61
2023/11/19 03:21:02;;;;;;;;;;;;;;;25.78;41.44;101090.06;4199707;28;20023;-60
2023/11/19 03:23:05;;;;;;;;;;;;;;;25.76;41.33;101085.84;4199686;28;20341;-60
2023/11/19 03:25:08;;;;;;;;;;;;;;;25.76;41.26;101083.13;4199662;28;19921;-60
2023/11/19 03:27:11;;;;;;;;;;;;;;;25.79;41.51;101089.09;4199497;28;19920;-60
2023/11/19 03:29:12;;;;;;;;;;;;;;;25.81;41.38;101088.97;4198464;28;20395;-61
2023/11/19 03:31:14;;;;;;;;;;;;;;;25.82;41.50;101080.72;4199334;28;19951;-60
2023/11/19 03:33:16;;;;;;;;;;;;;;;25.85;41.33;101087.66;4199648;28;19924;-60
2023/11/19 03:35:17;;;;;;;;;;;;;;;25.85;41.29;101082.28;4199746;28;19920;-60
2023/11/19 03:37:19;;;;;;;;;;;;;;;25.88;41.39;101083.81;4199633;28;19959;-61
2023/11/19 03:39:24;;;;;;;;;;;;;;;25.87;41.26;101074.91;4199559;28;20366;-61
2023/11/19 03:41:26;;;;;;;;;;;;;;;25.86;41.30;101083.13;4199356;28;19927;-60
2023/11/19 03:43:27;;;;;;;;;;;;;;;25.84;41.06;101067.94;4199599;28;19920;-60
2023/11/19 03:45:29;;;;;;;;;;;;;;;25.81;41.14;101070.94;4199022;28;19955;-60
2023/11/19 03:47:30;;;;;;;;;;;;;;;25.80;41.42;101060.31;4199268;28;19952;-60
2023/11/19 03:49:32;;;;;;;;;;;;;;;25.80;41.24;101068.41;4198186;28;19970;-60
2023/11/19 03:51:34;;;;;;;;;;;;;;;25.82;41.23;101072.66;4199088;28;19920;-60
2023/11/19 03:53:36;;;;;;;;;;;;;;;25.85;41.30;101071.50;4199225;28;19951;-60
2023/11/19 03:55:37;;;;;;;;;;;;;;;25.87;41.28;101069.50;4199284;28;19927;-60
2023/11/19 03:57:39;;;;;;;;;;;;;;;25.88;41.11;101073.88;4199260;28;20016;-60
2023/11/19 03:59:41;;;;;;;;;;;;;;;25.91;41.09;101078.16;4199287;28;19980;-60
2023/11/19 04:01:42;;;;;;;;;;;;;;;25.90;41.24;101074.59;4198745;28;20091;-61
2023/11/19 04:03:44;;;;;;;;;;;;;;;25.90;41.12;101074.59;4198748;28;19920;-60
2023/11/19 04:05:48;;;;;;;;;;;;;;;25.88;41.29;101076.56;4198923;28;20497;-60
2023/11/19 04:07:50;;;;;;;;;;;;;;;25.88;41.28;101081.97;4199074;28;20019;-60
2023/11/19 04:09:51;;;;;;;;;;;;;;;25.86;41.03;101083.13;4199041;28;20330;-60
2023/11/19 04:11:53;;;;;;;;;;;;;;;25.84;41.17;101081.41;4198789;28;20019;-61
2023/11/19 04:13:54;;;;;;;;;;;;;;;25.84;41.30;101081.41;4198948;28;19920;-60
2023/11/19 04:15:56;;;;;;;;;;;;;;;25.85;41.34;101079.59;4196766;28;20007;-60
2023/11/19 04:17:57;;;;;;;;;;;;;;;25.88;41.09;101084.66;4198818;28;20407;-60
2023/11/19 04:20:05;;;;;;;;;;;;;;;25.91;40.90;101080.84;4198950;28;19947;-60
2023/11/19 04:22:08;;;;;;;;;;;;;;;25.92;41.17;101086.09;4198897;28;19966;-60
2023/11/19 04:24:12;;;;;;;;;;;;;;;25.93;40.91;101087.78;4198586;28;19920;-59
2023/11/19 04:26:14;;;;;;;;;;;;;;;25.92;41.15;101090.59;4198479;28;20007;-60
2023/11/19 04:28:15;;;;;;;;;;;;;;;25.92;41.12;101096.88;4199001;28;19924;-60
2023/11/19 04:30:17;;;;;;;;;;;;;;;25.90;41.22;101079.97;4198340;28;19920;-60
2023/11/19 04:32:19;;;;;;;;;;;;;;;25.89;41.10;101082.84;4198744;28;19920;-60
2023/11/19 04:34:20;;;;;;;;;;;;;;;25.87;41.18;101091.06;4198569;28;20418;-60
2023/11/19 04:36:24;;;;;;;;;;;;;;;25.85;41.10;101087.66;4198514;28;19920;-60
2023/11/19 04:38:26;;;;;;;;;;;;;;;25.84;41.11;101086.78;4198483;28;20341;-60
2023/11/19 04:40:28;;;;;;;;;;;;;;;25.87;41.25;101082.13;4198693;28;20294;-61
2023/11/19 04:42:30;;;;;;;;;;;;;;;25.88;41.01;101087.34;4198473;28;20007;-60
2023/11/19 04:44:32;;;;;;;;;;;;;;;25.89;41.10;101097.16;4197962;28;19920;-61
2023/11/19 04:46:33;;;;;;;;;;;;;;;25.92;40.88;101093.31;4197483;28;19946;-61
2023/11/19 04:48:35;;;;;;;;;;;;;;;25.91;40.70;101092.47;4198128;28;19939;-60
2023/11/19 04:50:39;;;;;;;;;;;;;;;25.93;41.03;101100.41;4198164;28;19944;-60
2023/11/19 04:52:42;;;;;;;;;;;;;;;25.93;40.84;101097.69;4198468;28;20553;-60
2023/11/19 04:54:43;;;;;;;;;;;;;;;25.91;40.90;101105.94;4197215;28;20414;-60
2023/11/19 04:56:47;;;;;;;;;;;;;;;25.90;40.77;101115.00;4198337;28;19924;-60
2023/11/19 04:58:48;;;;;;;;;;;;;;;25.89;40.77;101112.47;4197785;28;19920;-60
2023/11/19 05:00:50;;;;;;;;;;;;;;;25.88;40.60;101108.06;4198281;28;20425;-60
2023/11/19 05:02:51;;;;;;;;;;;;;;;25.87;40.93;101112.63;4198056;28;20406;-60
2023/11/19 05:04:53;;;;;;;;;;;;;;;25.88;40.97;101102.69;4198310;28;19947;-61
2023/11/19 05:06:55;;;;;;;;;;;;;;;25.74;40.82;101087.84;4198197;28;20302;-60
2023/11/19 05:08:58;;;;;;;;;;;;;;;25.92;40.63;101107.66;4198247;28;20500;-60
2023/11/19 05:10:59;;;;;;;;;;;;;;;25.93;40.63;101106.66;4198052;28;20393;-60
2023/11/19 05:13:01;;;;;;;;;;;;;;;25.94;40.61;101112.88;4197807;28;20394;-60
2023/11/19 05:15:03;;;;;;;;;;;;;;;25.95;40.78;101112.72;4197988;28;20334;-60
2023/11/19 05:17:04;;;;;;;;;;;;;;;25.94;40.76;101105.66;4197818;28;19920;-60
2023/11/19 05:19:06;;;;;;;;;;;;;;;25.93;40.35;101114.75;4197907;28;19920;-61
2023/11/19 05:21:07;;;;;;;;;;;;;;;25.93;40.49;101109.34;4197953;28;19920;-60
2023/11/19 05:23:09;;;;;;;;;;;;;;;25.93;40.83;101105.78;4197859;28;19926;-60
2023/11/19 05:25:22;;;;;;;;;;;;;;;25.92;40.38;101117.56;4197369;28;19951;-61
2023/11/19 05:27:23;;;;;;;;;;;;;;;25.89;40.66;101110.63;4196430;28;19978;-61
2023/11/19 05:29:25;;;;;;;;;;;;;;;25.91;40.64;101121.28;4197970;28;19924;-61
2023/11/19 05:31:26;;;;;;;;;;;;;;;25.92;40.54;101112.16;4197674;28;19927;-61
2023/11/19 05:33:28;;;;;;;;;;;;;;;25.95;40.66;101122.66;4197816;28;20000;-61
2023/11/19 05:35:30;;;;;;;;;;;;;;;25.96;40.77;101124.38;4197446;28;19920;-61
2023/11/19 05:37:31;;;;;;;;;;;;;;;25.88;40.43;101105.38;4196340;28;19920;-60
2023/11/19 05:39:33;;;;;;;;;;;;;;;25.97;40.58;101128.78;4197759;28;19951;-60
2023/11/19 05:41:34;;;;;;;;;;;;;;;25.97;40.70;101118.00;4197354;28;20375;-60
2023/11/19 05:43:37;;;;;;;;;;;;;;;25.96;40.59;101116.28;4197627;28;20004;-61
2023/11/19 05:45:39;;;;;;;;;;;;;;;25.95;40.23;101122.66;4195946;28;19942;-60
2023/11/19 05:47:41;;;;;;;;;;;;;;;25.95;40.45;101125.38;4197583;28;19920;-60
2023/11/19 05:49:43;;;;;;;;;;;;;;;25.90;40.54;101128.50;4197229;28;20011;-61
2023/11/19 05:51:51;;;;;;;;;;;;;;;25.91;40.54;101126.66;4197330;28;20012;-61
2023/11/19 05:53:52;;;;;;;;;;;;;;;25.91;40.25;101132.88;4197341;28;19971;-61
2023/11/19 05:55:57;;;;;;;;;;;;;;;25.93;40.47;101135.44;4197097;28;20391;-61
2023/11/19 05:57:58;;;;;;;;;;;;;;;25.95;40.24;101128.91;4196182;28;19954;-60
2023/11/19 06:00:00;;;;;;;;;;;;;;;25.97;40.40;101129.63;4197276;28;19927;-60
2023/11/19 06:02:02;;;;;;;;;;;;;;;25.99;40.26;101146.50;4197348;28;19967;-60
2023/11/19 06:04:09;;;;;;;;;;;;;;;26.00;40.19;101141.94;4195988;28;19920;-60
2023/11/19 06:06:15;;;;;;;;;;;;;;;25.99;40.04;101149.19;4197059;28;19927;-61
2023/11/19 06:08:16;;;;;;;;;;;;;;;25.98;40.05;101142.09;4197304;28;20015;-61
2023/11/19 06:10:20;;;;;;;;;;;;;;;25.97;40.17;101145.78;4196138;28;19956;-61
2023/11/19 06:12:22;;;;;;;;;;;;;;;25.97;40.11;101137.69;4197222;28;19920;-61
2023/11/19 06:14:24;;;;;;;;;;;;;;;25.96;39.90;101148.63;4196984;28;20403;-60
2023/11/19 06:16:25;;;;;;;;;;;;;;;25.95;40.23;101150.44;4197027;28;20399;-61
2023/11/19 06:18:32;;;;;;;;;;;;;;;25.96;40.20;101144.06;4197183;28;19950;-61
2023/11/19 06:20:34;;;;;;;;;;;;;;;25.96;40.40;101148.63;4197241;28;19925;-60
2023/11/19 06:22:39;;;;;;;;;;;;;;;25.98;40.28;101150.19;4197159;28;19954;-61
2023/11/19 06:24:41;;;;;;;;;;;;;;;26.01;40.22;101145.50;4197077;28;20371;-60
2023/11/19 06:26:43;;;;;;;;;;;;;;;26.02;39.94;101145.34;4195392;28;19924;-60
2023/11/19 06:28:44;;;;;;;;;;;;;;;26.03;39.96;101156.97;4196969;28;19928;-60
2023/11/19 06:30:46;;;;;;;;;;;;;;;26.02;39.87;101152.59;4196904;28;20033;-60
2023/11/19 06:32:49;;;;;;;;;;;;;;;26.01;39.79;101159.81;4195593;28;19920;-60
2023/11/19 06:34:51;;;;;;;;;;;;;;;25.99;40.08;101151.88;4196844;28;19920;-60
2023/11/19 06:36:53;;;;;;;;;;;;;;;25.98;40.29;101154.72;4196899;28;19924;-60
2023/11/19 06:38:55;;;;;;;;;;;;;;;25.97;39.99;101151.16;4196511;28;19925;-61
2023/11/19 06:40:57;;;;;;;;;;;;;;;25.96;40.02;101159.41;4196547;28;20050;-59
2023/11/19 06:42:58;;;;;;;;;;;;;;;25.95;40.17;101161.22;4196732;28;19974;-61
2023/11/19 06:45:00;;;;;;;;;;;;;;;25.98;40.26;101170.91;4196912;28;19924;-60
2023/11/19 06:47:01;;;;;;;;;;;;;;;26.01;40.03;101161.69;4196802;28;20011;-60
2023/11/19 06:49:03;;;;;;;;;;;;;;;26.02;40.15;101147.22;4196501;28;19924;-60
2023/11/19 06:51:05;;;;;;;;;;;;;;;26.03;40.12;101162.34;4196623;28;20038;-60
2023/11/19 06:53:10;;;;;;;;;;;;;;;26.03;39.70;101159.66;4196799;28;19955;-60
2023/11/19 06:55:11;;;;;;;;;;;;;;;26.02;39.99;101155.28;4196769;28;20345;-61
2023/11/19 06:57:13;;;;;;;;;;;;;;;26.01;39.80;101154.44;4196780;28;19920;-60
2023/11/19 06:59:15;;;;;;;;;;;;;;;25.99;39.86;101161.78;4196749;28;19931;-60
2023/11/19 07:01:17;;;;;;;;;;;;;;;25.95;39.76;101160.41;4195540;28;19945;-60
2023/11/19 07:03:21;;;;;;;;;;;;;;;25.93;40.09;101174.03;4196438;28;19920;-60
2023/11/19 07:05:23;;;;;;;;;;;;;;;25.92;40.25;101166.06;4196672;28;20395;-60
2023/11/19 07:07:26;;;;;;;;;;;;;;;25.92;40.21;101164.25;4196688;28;19924;-60
2023/11/19 07:09:27;;;;;;;;;;;;;;;25.95;40.12;101179.25;4196628;28;20339;-61
2023/11/19 07:11:29;;;;;;;;;;;;;;;25.97;39.61;101172.72;4196733;28;19920;-61
2023/11/19 07:13:31;;;;;;;;;;;;;;;25.97;39.57;101175.44;4196865;28;20379;-61
2023/11/19 07:15:32;;;;;;;;;;;;;;;25.98;39.66;101171.75;4196640;28;19920;-60
2023/11/19 07:17:35;;;;;;;;;;;;;;;25.99;39.67;101177.97;4196758;28;19952;-60
2023/11/19 07:19:38;;;;;;;;;;;;;;;25.98;39.98;101173.59;4196703;28;19920;-60
2023/11/19 07:21:46;;;;;;;;;;;;;;;25.96;39.87;101167.50;4196354;28;19925;-60
2023/11/19 07:23:49;;;;;;;;;;;;;;;25.94;39.56;101167.66;4196001;28;19927;-60
2023/11/19 07:25:53;;;;;;;;;;;;;;;25.92;39.86;101161.53;4196691;28;19921;-60
2023/11/19 07:27:54;;;;;;;;;;;;;;;25.90;40.05;101163.53;4196268;28;19932;-61
2023/11/19 07:29:56;;;;;;;;;;;;;;;25.90;39.54;101168.91;4196598;28;19935;-60
2023/11/19 07:31:57;;;;;;;;;;;;;;;25.92;39.70;101168.75;4196420;28;20317;-60
2023/11/19 07:33:59;;;;;;;;;;;;;;;25.95;39.87;101171.19;4196572;28;19920;-61
2023/11/19 07:36:01;;;;;;;;;;;;;;;25.96;39.54;101171.03;4196513;28;19924;-60
2023/11/19 07:38:02;;;;;;;;;;;;;;;25.99;39.61;101172.56;4196417;28;20030;-61
2023/11/19 07:40:04;;;;;;;;;;;;;;;26.00;39.58;101179.66;4195271;28;19920;-61
2023/11/19 07:42:06;;;;;;;;;;;;;;;26.01;39.50;101183.25;4196390;28;19924;-61
2023/11/19 07:44:07;;;;;;;;;;;;;;;26.01;39.36;101184.06;4196460;28;20379;-60
2023/11/19 07:46:13;;;;;;;;;;;;;;;26.01;39.35;101183.25;4196448;28;19920;-60
2023/11/19 07:48:15;;;;;;;;;;;;;;;25.99;39.58;101194.13;4196388;28;19920;-60
2023/11/19 07:50:20;;;;;;;;;;;;;;;25.97;39.67;101202.38;4197131;28;19920;-60
2023/11/19 07:52:21;;;;;;;;;;;;;;;25.95;39.42;101198.13;4199100;28;19927;-60
2023/11/19 07:54:24;;;;;;;;;;;;;;;25.95;39.50;101192.75;4199101;28;20403;-61
2023/11/19 07:56:25;;;;;;;;;;;;;;;25.96;39.67;101195.28;4199441;28;19974;-61
2023/11/19 07:58:27;;;;;;;;;;;;;;;25.98;39.68;101197.84;4199255;28;20014;-60
2023/11/19 08:00:28;;;;;;;;;;;;;;;26.01;39.37;101202.09;4199125;28;19920;-61
2023/11/19 08:02:30;;;;;;;;;;;;;;;26.03;39.60;101200.97;4197722;28;19920;-60
2023/11/19 08:04:32;;;;;;;;;;;;;;;26.04;39.18;101202.66;4199014;28;19964;-60
2023/11/19 08:06:33;;;;;;;;;;;;;;;26.05;39.54;101193.56;4198907;28;20276;-60
2023/11/19 08:08:35;;;;;;;;;;;;;;;26.05;39.30;101187.34;4199120;28;19927;-60
2023/11/19 08:10:37;;;;;;;;;;;;;;;26.04;39.51;101191.00;4198932;28;19970;-61
2023/11/19 08:12:39;;;;;;;;;;;;;;;26.01;39.22;101200.25;4198602;28;19924;-60
2023/11/19 08:14:41;;;;;;;;;;;;;;;25.99;39.25;101200.41;4199118;28;19921;-60
2023/11/19 08:16:42;;;;;;;;;;;;;;;25.98;39.15;101201.38;4198942;28;19924;-60
2023/11/19 08:18:44;;;;;;;;;;;;;;;25.96;39.54;101197.13;4198985;28;19944;-60
2023/11/19 08:20:48;;;;;;;;;;;;;;;25.98;39.49;101198.69;4197555;28;19924;-61
2023/11/19 08:22:50;;;;;;;;;;;;;;;26.00;39.36;101201.22;4198946;28;19930;-61
2023/11/19 08:24:52;;;;;;;;;;;;;;;26.02;39.40;101198.41;4198910;28;19927;-60
2023/11/19 08:26:53;;;;;;;;;;;;;;;26.03;39.51;101202.78;4198875;28;20349;-60
2023/11/19 08:28:58;;;;;;;;;;;;;;;26.03;39.17;101195.56;4198892;28;19942;-60
2023/11/19 08:31:00;;;;;;;;;;;;;;;26.04;39.30;101189.19;4198941;28;19963;-61
2023/11/19 08:33:05;;;;;;;;;;;;;;;26.05;39.33;101190.03;4198521;28;19920;-61
2023/11/19 08:35:07;;;;;;;;;;;;;;;26.03;39.47;101197.41;4198618;28;19920;-60
2023/11/19 08:37:09;;;;;;;;;;;;;;;26.03;39.25;101202.78;4198345;28;19959;-60
2023/11/19 08:39:10;;;;;;;;;;;;;;;26.01;39.02;101202.09;4198867;28;20011;-61
2023/11/19 08:41:12;;;;;;;;;;;;;;;26.01;39.29;101210.19;4198370;28;19921;-60
2023/11/19 08:43:13;;;;;;;;;;;;;;;26.01;39.32;101220.97;4198682;28;20007;-60
2023/11/19 08:45:15;;;;;;;;;;;;;;;26.02;39.34;101219.97;4198420;28;19924;-60
2023/11/19 08:47:19;;;;;;;;;;;;;;;26.04;39.24;101216.16;4198517;28;19924;-60
2023/11/19 08:49:21;;;;;;;;;;;;;;;26.07;38.95;101226.66;4198533;28;20011;-60
2023/11/19 08:51:22;;;;;;;;;;;;;;;26.06;39.09;101207.91;4197914;28;20011;-60
2023/11/19 08:53:24;;;;;;;;;;;;;;;26.09;39.06;101231.88;4197148;28;20301;-60
2023/11/19 08:55:26;;;;;;;;;;;;;;;26.09;39.10;101227.38;4198294;28;19924;-61
2023/11/19 08:57:28;;;;;;;;;;;;;;;26.09;39.13;101232.75;4198282;28;20435;-60
2023/11/19 08:59:29;;;;;;;;;;;;;;;26.08;38.73;101241.84;4196877;28;19931;-60
2023/11/19 09:01:31;;;;;;;;;;;;;;;26.04;39.17;101251.19;4198476;28;19940;-60
2023/11/19 09:03:33;;;;;;;;;;;;;;;26.02;39.16;101258.56;4198371;28;19920;-60
2023/11/19 09:05:34;;;;;;;;;;;;;;;26.00;38.80;101255.13;4197700;28;19926;-60
2023/11/19 09:07:36;;;;;;;;;;;;;;;25.99;38.98;101266.91;4197769;28;19925;-60
2023/11/19 09:09:38;;;;;;;;;;;;;;;26.02;38.81;101265.81;4198230;28;19920;-61
2023/11/19 09:11:39;;;;;;;;;;;;;;;26.03;38.70;101262.09;4198053;28;19920;-60
2023/11/19 09:13:41;;;;;;;;;;;;;;;26.05;38.96;101265.50;4198020;28;19920;-60
2023/11/19 09:15:42;;;;;;;;;;;;;;;26.06;39.02;101259.13;4198106;28;19920;-61
2023/11/19 09:17:45;;;;;;;;;;;;;;;26.06;39.06;101253.72;4197911;28;20425;-62
2023/11/19 09:19:47;;;;;;;;;;;;;;;26.07;38.71;101264.38;4197816;28;19931;-62
2023/11/19 09:21:49;;;;;;;;;;;;;;;26.05;38.91;101257.41;4198082;28;19965;-62
2023/11/19 09:23:50;;;;;;;;;;;;;;;26.05;38.94;101270.88;4197955;28;20004;-62
2023/11/19 09:25:52;;;;;;;;;;;;;;;26.02;38.95;101263.94;4197581;28;20029;-60
2023/11/19 09:27:53;;;;;;;;;;;;;;;26.00;39.00;101257.84;4197860;28;19924;-60
2023/11/19 09:29:57;;;;;;;;;;;;;;;25.98;38.71;101260.69;4197858;28;19927;-60
2023/11/19 09:31:59;;;;;;;;;;;;;;;25.97;38.77;101256.28;4197850;28;19924;-60
2023/11/19 09:34:01;;;;;;;;;;;;;;;25.98;38.73;101257.16;4197333;28;20358;-62
2023/11/19 09:36:02;;;;;;;;;;;;;;;26.01;38.70;101250.63;4197685;28;19920;-60
2023/11/19 09:38:05;;;;;;;;;;;;;;;26.02;38.89;101253.16;4197694;28;19966;-60
2023/11/19 09:40:09;;;;;;;;;;;;;;;26.05;38.73;101250.16;4213022;28;19958;-60
2023/11/19 09:42:10;;;;;;;;;;;;;;;26.06;38.75;101251.88;4197756;28;19982;-60
2023/11/19 09:44:12;;;;;;;;;;;;;;;26.06;38.56;101242.94;4197625;28;20316;-59
2023/11/19 09:46:15;;;;;;;;;;;;;;;26.06;38.42;101248.34;4197301;28;19920;-59
2023/11/19 09:48:18;;;;;;;;;;;;;;;26.05;38.84;101246.63;4196949;28;19924;-60
2023/11/19 09:50:19;;;;;;;;;;;;;;;26.04;38.49;101244.94;4197313;28;19921;-59
2023/11/19 09:52:21;;;;;;;;;;;;;;;26.03;38.81;101243.22;4197479;28;19975;-59
2023/11/19 09:54:23;;;;;;;;;;;;;;;26.01;38.69;101247.91;4197202;28;20011;-60
2023/11/19 09:56:25;;;;;;;;;;;;;;;25.99;38.70;101238.13;4197405;28;19920;-60
2023/11/19 09:58:26;;;;;;;;;;;;;;;25.99;38.41;101245.34;4196256;28;20015;-59
2023/11/19 10:00:28;;;;;;;;;;;;;;;26.02;38.70;101249.63;4197309;28;19958;-60
2023/11/19 10:02:31;;;;;;;;;;;;;;;26.04;38.56;101239.53;4197181;28;19962;-59
2023/11/19 10:04:34;;;;;;;;;;;;;;;26.06;38.51;101249.19;4197214;28;20378;-60
2023/11/19 10:06:36;;;;;;;;;;;;;;;25.96;38.23;101227.63;4197228;28;19928;-60
2023/11/19 10:08:41;;;;;;;;;;;;;;;26.05;38.31;101239.38;4197167;28;19964;-60
2023/11/19 10:10:43;;;;;;;;;;;;;;;26.05;38.14;101238.53;4197416;28;19966;-60
2023/11/19 10:12:46;;;;;;;;;;;;;;;26.05;38.33;101242.06;4196519;28;20625;-60
2023/11/19 10:14:51;;;;;;;;;;;;;;;26.05;38.22;101249.31;4197018;28;20318;-60
2023/11/19 10:16:55;;;;;;;;;;;;;;;26.02;38.05;101245.06;4195248;28;19920;-60
2023/11/19 10:18:56;;;;;;;;;;;;;;;25.99;38.33;101251.59;4196971;28;19955;-60
2023/11/19 10:20:58;;;;;;;;;;;;;;;25.99;38.47;101243.53;4197024;28;19924;-60
2023/11/19 10:22:59;;;;;;;;;;;;;;;26.03;38.47;101249.47;4197093;28;19928;-61
2023/11/19 10:25:01;;;;;;;;;;;;;;;26.05;38.38;101252.03;4197105;28;19920;-61
2023/11/19 10:27:03;;;;;;;;;;;;;;;26.06;38.37;101246.47;4196926;28;20017;-61